Time;durP1;ratioP1;P1;durP2;ratioP2;P2;SDS_P1;SDS_P2;PMS_P1;PMS_P2;Temp;Humidity;BMP_temperature;BMP_pressure;BME280_temperature;BME280_humidity;BME280_pressure;Samples;Min_cycle;Max_cycle;Signal;HPM_P1;HPM_P2
2023/06/19 00:16:19;;;;;;;15.40;12.30;;;;;;;30.98;32.73;99861.92;108181;1254;71223;-67
2023/06/19 00:18:46;;;;;;;17.10;12.50;;;;;;;31.34;32.28;99863.00;108043;1254;60323;-69
2023/06/19 00:21:14;;;;;;;19.70;13.30;;;;;;;31.62;31.75;99863.73;108044;1254;60293;-69
2023/06/19 00:23:44;;;;;;;19.80;13.40;;;;;;;31.37;32.01;99861.48;108091;1254;73793;-68
2023/06/19 00:26:14;;;;;;;18.10;13.30;;;;;;;31.36;32.02;99860.68;108062;1254;69094;-69
2023/06/19 00:28:49;;;;;;;20.80;12.30;;;;;;;31.47;31.92;99859.96;108118;1254;71548;-69
2023/06/19 00:49:21;;;;;;;18.00;11.90;;;;;;;31.42;31.97;99849.63;108200;1254;60227;-68
2023/06/19 00:51:49;;;;;;;14.30;11.80;;;;;;;31.67;31.77;99848.91;108010;1259;60418;-67
2023/06/19 01:19:10;;;;;;;17.10;11.60;;;;;;;32.79;29.96;99850.20;107943;1253;60332;-67
2023/06/19 01:22:30;;;;;;;23.60;11.80;;;;;;;32.45;30.07;99853.89;109312;1253;60389;-68
2023/06/19 01:25:00;;;;;;;19.00;11.80;;;;;;;32.44;30.27;99854.29;109239;1253;73483;-68
2023/06/19 01:28:20;;;;;;;16.00;11.70;;;;;;;32.39;30.39;99857.20;109201;1254;69815;-68
2023/06/19 01:34:04;;;;;;;17.60;12.00;;;;;;;30.09;33.52;99871.38;104928;1291;600405;-68
2023/06/19 01:40:49;;;;;;;18.50;12.10;;;;;;;31.45;31.61;99868.45;107218;1266;59017;-69
2023/06/19 02:05:11;;;;;;;22.00;12.20;;;;;;;31.39;31.26;99879.23;107271;1266;71627;-68
2023/06/19 02:07:38;;;;;;;16.70;11.60;;;;;;;31.22;31.33;99879.63;107175;1266;60093;-69
2023/06/19 02:10:07;;;;;;;19.70;12.20;;;;;;;31.26;31.30;99878.70;107221;1266;60216;-69
2023/06/19 02:12:35;;;;;;;17.00;11.50;;;;;;;31.23;31.24;99881.84;107280;1266;71934;-68
2023/06/19 02:15:03;;;;;;;15.20;11.00;;;;;;;31.18;31.28;99877.48;107205;1266;69944;-67
2023/06/19 02:17:31;;;;;;;17.40;11.10;;;;;;;31.23;31.11;99878.05;107267;1266;71945;-68
2023/06/19 02:19:59;;;;;;;19.80;11.80;;;;;;;31.21;31.13;99876.91;107228;1269;59890;-69
2023/06/19 02:22:26;;;;;;;16.30;11.40;;;;;;;31.16;31.14;99877.25;107295;1266;60099;-71
2023/06/19 02:24:53;;;;;;;20.30;11.60;;;;;;;31.40;30.73;99877.98;107328;1270;71412;-68
2023/06/19 02:27:21;;;;;;;17.40;11.60;;;;;;;31.28;30.86;99876.44;107326;1267;68181;-69
2023/06/19 02:29:48;;;;;;;17.30;11.20;;;;;;;31.35;30.70;99880.92;107245;1267;72497;-67
2023/06/19 02:32:16;;;;;;;20.70;12.10;;;;;;;31.66;30.36;99878.26;107258;1266;60551;-68
2023/06/19 02:34:44;;;;;;;18.30;12.10;;;;;;;31.54;30.43;99876.89;107377;1266;60004;-65
2023/06/19 02:37:11;;;;;;;16.90;10.90;;;;;;;31.56;30.60;99879.71;107317;1271;72984;-67
2023/06/19 02:39:40;;;;;;;17.30;11.60;;;;;;;31.60;30.48;99883.75;107308;1265;70291;-66
2023/06/19 02:42:07;;;;;;;16.20;11.70;;;;;;;31.58;30.45;99884.95;107276;1267;71403;-68
2023/06/19 02:44:34;;;;;;;17.50;11.90;;;;;;;31.60;30.60;99886.46;107201;1269;59510;-69
2023/06/19 02:47:02;;;;;;;15.10;11.30;;;;;;;31.66;30.50;99891.33;107135;1266;59555;-67
2023/06/19 02:49:29;;;;;;;20.60;12.20;;;;;;;31.74;30.45;99892.64;107223;1266;75323;-68
2023/06/19 02:51:57;;;;;;;21.20;11.50;;;;;;;31.55;30.40;99897.29;107237;1266;70345;-68
2023/06/19 02:54:24;;;;;;;19.60;11.30;;;;;;;31.56;30.59;99898.89;107213;1271;72701;-69
2023/06/19 02:56:52;;;;;;;16.40;11.80;;;;;;;31.60;30.58;99895.34;107267;1266;59727;-68
2023/06/19 02:59:19;;;;;;;18.40;11.50;;;;;;;31.76;30.32;99896.58;107348;1271;60050;-69
2023/06/19 03:01:51;;;;;;;19.80;12.00;;;;;;;31.66;30.39;99896.55;107298;1266;73078;-69
2023/06/19 03:04:18;;;;;;;19.40;11.90;;;;;;;31.77;30.30;99896.08;107143;1267;70379;-69
2023/06/19 03:06:46;;;;;;;14.00;10.50;;;;;;;31.65;30.39;99894.73;107203;1267;75109;-69
2023/06/19 03:09:13;;;;;;;20.90;12.40;;;;;;;31.50;30.46;99893.78;107421;1263;59503;-69
2023/06/19 03:11:42;;;;;;;18.90;11.50;;;;;;;31.52;30.47;99888.98;107379;1263;59563;-68
2023/06/19 03:14:09;;;;;;;15.40;11.60;;;;;;;31.69;30.20;99891.98;107362;1263;72760;-68
2023/06/19 03:16:37;;;;;;;17.90;11.70;;;;;;;31.81;30.06;99884.63;107205;1270;70365;-69
2023/06/19 03:19:04;;;;;;;18.90;11.70;;;;;;;31.92;29.84;99889.84;107334;1263;70771;-69
2023/06/19 03:21:33;;;;;;;21.70;11.70;;;;;;;31.93;29.99;99888.63;107299;1263;60052;-70
2023/06/19 03:24:00;;;;;;;17.10;11.90;;;;;;;31.87;30.24;99888.42;107653;1259;59064;-69
2023/06/19 03:26:28;;;;;;;18.90;11.80;;;;;;;31.93;30.01;99888.92;107685;1258;73163;-68
2023/06/19 03:28:58;;;;;;;17.80;11.30;;;;;;;31.93;30.08;99889.29;107651;1257;69836;-68
2023/06/19 03:31:26;;;;;;;21.30;11.80;;;;;;;31.97;29.97;99890.00;107472;1260;73147;-70
2023/06/19 03:33:53;;;;;;;19.90;12.50;;;;;;;31.73;30.30;99887.55;107711;1260;60083;-67
2023/06/19 03:36:22;;;;;;;19.40;11.70;;;;;;;31.72;30.29;99885.45;107662;1258;60532;-67
2023/06/19 03:38:53;;;;;;;23.50;11.40;;;;;;;31.74;30.39;99882.48;107702;1262;75235;-68
2023/06/19 03:41:23;;;;;;;27.70;12.10;;;;;;;31.64;30.56;99884.48;107681;1257;68783;-68
2023/06/19 03:43:51;;;;;;;17.40;11.50;;;;;;;31.49;30.89;99885.36;107627;1260;72669;-69
2023/06/19 03:46:18;;;;;;;17.90;12.00;;;;;;;31.53;30.86;99883.16;107919;1257;59502;-69
2023/06/19 03:48:46;;;;;;;17.60;12.20;;;;;;;31.60;30.69;99885.39;107772;1257;59981;-66
2023/06/19 03:55:49;;;;;;;19.40;11.90;;;;;;;31.88;30.48;99881.19;108023;1256;68863;-68
2023/06/19 03:58:34;;;;;;;17.80;12.00;;;;;;;31.76;30.65;99883.09;107829;1256;73059;-67
2023/06/19 04:01:02;;;;;;;25.00;13.10;;;;;;;31.76;30.64;99883.67;107888;1257;62058;-68
2023/06/19 04:04:37;;;;;;;14.80;11.40;;;;;;;31.67;30.68;99883.53;107910;1257;59598;-68
2023/06/19 04:19:46;;;;;;;17.50;11.40;;;;;;;31.33;30.93;99893.08;107937;1257;59087;-69
2023/06/19 04:22:13;;;;;;;17.30;11.50;;;;;;;31.42;31.22;99893.87;108014;1254;72110;-73
2023/06/19 04:24:41;;;;;;;17.70;11.80;;;;;;;31.33;31.31;99892.67;108093;1254;69112;-69
2023/06/19 04:27:08;;;;;;;16.60;12.20;;;;;;;31.68;30.78;99893.65;107930;1254;72805;-69
2023/06/19 04:29:36;;;;;;;19.40;12.10;;;;;;;31.90;30.36;99889.46;107955;1257;59717;-69
2023/06/19 04:32:11;;;;;;;20.30;12.20;;;;;;;31.79;30.44;99889.05;107949;1256;59633;-68
2023/06/19 04:34:38;;;;;;;24.40;11.60;;;;;;;31.84;30.52;99888.01;107899;1257;73013;-68
2023/06/19 04:37:06;;;;;;;20.20;11.40;;;;;;;31.88;30.36;99887.85;107910;1254;70928;-69
2023/06/19 04:39:33;;;;;;;22.00;12.10;;;;;;;31.98;30.51;99890.65;107933;1257;73201;-69
2023/06/19 04:42:01;;;;;;;20.10;11.70;;;;;;;31.97;30.69;99887.58;107983;1255;60221;-69
2023/06/19 04:44:29;;;;;;;16.90;11.50;;;;;;;32.10;30.50;99886.09;108049;1254;59262;-69
2023/06/19 04:47:00;;;;;;;17.30;12.80;;;;;;;32.02;30.69;99890.24;108057;1254;73082;-69
2023/06/19 04:49:31;;;;;;;24.80;13.10;;;;;;;32.35;30.33;99884.04;107960;1254;70306;-68
2023/06/19 04:51:59;;;;;;;17.70;12.00;;;;;;;32.19;30.77;99889.27;107962;1257;72661;-68
2023/06/19 04:54:26;;;;;;;19.40;12.00;;;;;;;32.36;30.59;99888.61;108030;1259;60017;-71
2023/06/19 04:56:53;;;;;;;24.70;12.80;;;;;;;32.54;30.26;99886.98;107992;1254;59398;-71
2023/06/19 04:59:21;;;;;;;17.00;11.90;;;;;;;32.61;30.31;99891.10;107945;1254;73600;-69
2023/06/19 05:01:48;;;;;;;16.70;12.20;;;;;;;32.74;30.19;99891.80;107904;1254;69647;-71
2023/06/19 05:04:15;;;;;;;21.40;12.20;;;;;;;32.85;30.05;99896.69;108073;1257;72709;-68
2023/06/19 05:06:43;;;;;;;19.30;12.50;;;;;;;33.00;29.90;99892.97;107997;1254;59406;-69
2023/06/19 05:09:10;;;;;;;23.10;12.40;;;;;;;33.19;29.66;99896.06;108003;1254;60322;-69
2023/06/19 05:11:38;;;;;;;19.30;11.80;;;;;;;33.01;29.91;99891.71;108040;1259;73055;-68
2023/06/19 05:14:05;;;;;;;20.00;11.80;;;;;;;33.20;29.71;99894.34;108089;1254;70123;-69
2023/06/19 05:16:33;;;;;;;22.70;11.90;;;;;;;33.30;29.64;99894.80;108041;1257;62622;-69
2023/06/19 05:19:03;;;;;;;;;;;;;;;33.44;29.45;99890.60;108059;1254;59568;-69
2023/06/19 05:21:30;;;;;;;27.50;12.70;;;;;;;33.66;29.26;99894.07;108127;1254;59535;-69
2023/06/19 05:23:57;;;;;;;17.10;11.70;;;;;;;33.68;29.42;99895.20;108145;1254;64647;-69
2023/06/19 05:26:26;;;;;;;19.40;11.80;;;;;;;33.82;29.36;99894.36;108084;1259;60395;-69
2023/06/19 05:28:53;;;;;;;17.10;11.40;;;;;;;33.82;29.36;99896.00;108013;1254;71463;-70
2023/06/19 05:31:20;;;;;;;17.30;11.60;;;;;;;33.69;29.53;99896.86;108079;1260;59614;-69
2023/06/19 05:33:48;;;;;;;17.60;11.30;;;;;;;33.72;29.60;99892.83;108037;1254;59458;-69
2023/06/19 05:36:15;;;;;;;19.50;11.40;;;;;;;33.89;29.37;99891.73;108077;1254;64154;-69
2023/06/19 05:38:42;;;;;;;18.60;11.70;;;;;;;34.15;29.17;99893.76;108036;1259;70570;-70
2023/06/19 05:41:10;;;;;;;19.40;12.20;;;;;;;34.17;29.17;99896.75;108002;1259;63817;-69
2023/06/19 05:43:38;;;;;;;16.90;11.40;;;;;;;34.24;28.92;99897.80;108040;1254;59159;-69
2023/06/19 05:46:05;;;;;;;20.70;12.00;;;;;;;34.07;28.98;99895.98;107957;1254;59368;-68
2023/06/19 05:48:32;;;;;;;19.90;11.20;;;;;;;34.14;28.84;99898.59;108023;1259;72118;-69
2023/06/19 05:51:00;;;;;;;17.90;11.50;;;;;;;34.41;28.51;99899.29;108033;1259;60119;-68
2023/06/19 05:53:27;;;;;;;22.50;11.60;;;;;;;34.54;28.36;99897.11;107982;1254;73588;-69
2023/06/19 05:55:54;;;;;;;17.40;11.10;;;;;;;34.29;28.52;99898.58;108019;1260;59696;-68
2023/06/19 05:58:23;;;;;;;22.60;11.80;;;;;;;34.26;28.81;99897.29;108035;1254;60345;-68
2023/06/19 06:01:41;;;;;;;20.70;12.00;;;;;;;34.17;28.80;99897.41;108033;1255;64893;-69
2023/06/19 06:08:20;;;;;;;19.10;12.10;;;;;;;34.52;28.64;99901.95;107936;1259;64057;-69
2023/06/19 06:21:08;;;;;;;16.50;11.20;;;;;;;34.90;27.39;99908.98;107967;1256;62961;-69
2023/06/19 06:23:36;;;;;;;16.80;11.10;;;;;;;34.83;27.08;99909.63;107920;1258;62477;-70
2023/06/19 06:26:06;;;;;;;17.90;10.80;;;;;;;34.67;27.21;99913.17;107980;1260;61130;-69
2023/06/19 06:32:22;;;;;;;17.20;11.50;;;;;;;34.85;26.52;99911.67;107994;1254;64914;-71
2023/06/19 06:35:30;;;;;;;16.30;11.20;;;;;;;34.92;26.47;99908.11;107862;1259;60953;-70
2023/06/19 06:37:58;;;;;;;18.90;11.50;;;;;;;35.18;26.15;99905.96;107795;1263;62996;-71
2023/06/19 06:40:25;;;;;;;16.50;10.40;;;;;;;35.19;25.95;99906.77;107931;1254;60326;-69
2023/06/19 06:42:53;;;;;;;16.10;11.00;;;;;;;35.12;25.82;99908.45;107899;1259;60347;-70
2023/06/19 06:45:21;;;;;;;22.70;10.50;;;;;;;35.23;25.71;99909.84;107927;1256;64915;-69
2023/06/19 06:47:48;;;;;;;20.80;11.30;;;;;;;35.26;25.41;99910.45;107818;1255;61398;-69
2023/06/19 06:50:17;;;;;;;16.70;10.70;;;;;;;35.69;25.21;99909.16;108012;1254;63703;-68
2023/06/19 06:52:44;;;;;;;17.50;11.20;;;;;;;35.83;25.08;99910.77;107955;1254;60620;-70
2023/06/19 06:55:13;;;;;;;17.10;10.20;;;;;;;35.85;24.26;99911.58;107862;1260;60284;-70
2023/06/19 06:57:41;;;;;;;18.70;11.20;;;;;;;36.03;24.28;99907.15;108006;1254;65093;-70
2023/06/19 07:00:11;;;;;;;18.10;10.30;;;;;;;36.16;24.02;99902.88;107899;1254;60652;-71
2023/06/19 07:02:39;;;;;;;15.50;10.50;;;;;;;36.60;23.72;99901.21;107976;1254;63916;-70
2023/06/19 07:05:08;;;;;;;14.00;10.70;;;;;;;37.17;23.25;99903.30;107927;1258;60465;-70
2023/06/19 07:07:36;;;;;;;18.00;10.90;;;;;;;37.31;22.91;99902.49;107839;1260;60517;-69
2023/06/19 07:10:03;;;;;;;15.70;11.00;;;;;;;37.39;22.86;99904.08;107883;1254;64910;-68
2023/06/19 07:12:31;;;;;;;17.60;10.10;;;;;;;37.39;23.04;99903.46;107968;1260;71244;-70
2023/06/19 07:14:58;;;;;;;18.50;10.90;;;;;;;37.48;22.85;99904.78;107988;1254;63761;-71
2023/06/19 07:17:25;;;;;;;15.40;10.50;;;;;;;37.67;22.91;99901.65;107960;1260;60377;-72
2023/06/19 07:19:53;;;;;;;15.50;10.40;;;;;;;37.90;22.58;99903.26;108018;1260;60322;-70
2023/06/19 07:22:20;;;;;;;16.00;9.40;;;;;;;37.66;22.10;99904.88;107972;1254;65314;-70
2023/06/19 07:24:47;;;;;;;21.30;10.30;;;;;;;37.83;21.74;99903.92;107985;1259;61838;-70
2023/06/19 07:27:15;;;;;;;18.00;10.10;;;;;;;37.82;21.40;99906.54;107874;1257;63826;-70
2023/06/19 07:29:43;;;;;;;15.70;9.40;;;;;;;37.95;21.10;99903.19;107915;1254;60986;-69
2023/06/19 07:32:11;;;;;;;13.10;9.50;;;;;;;38.37;20.85;99907.84;107955;1254;59138;-71
2023/06/19 07:34:38;;;;;;;11.50;8.80;;;;;;;38.44;20.14;99902.74;107905;1257;64998;-70
2023/06/19 07:37:06;;;;;;;16.20;9.40;;;;;;;38.61;19.75;99903.06;108021;1254;60338;-71
2023/06/19 07:39:33;;;;;;;14.40;9.30;;;;;;;38.98;19.60;99896.14;107908;1255;63732;-70
2023/06/19 07:42:01;;;;;;;18.30;9.60;;;;;;;39.49;19.17;99893.15;107932;1256;60389;-69
2023/06/19 07:44:28;;;;;;;12.60;8.60;;;;;;;40.09;18.37;99894.73;107910;1260;60423;-70
2023/06/19 07:46:55;;;;;;;16.60;8.70;;;;;;;40.71;18.25;99891.89;107937;1254;64958;-70
2023/06/19 07:49:22;;;;;;;20.90;9.20;;;;;;;41.27;17.62;99892.22;107968;1254;60319;-70
2023/06/19 07:51:50;;;;;;;15.00;9.50;;;;;;;41.39;17.32;99899.11;107929;1262;63961;-70
2023/06/19 07:54:17;;;;;;;15.60;9.10;;;;;;;41.42;17.51;99897.19;107959;1255;60261;-69
2023/06/19 07:56:44;;;;;;;13.10;9.20;;;;;;;41.59;17.35;99895.77;107985;1254;59058;-70
2023/06/19 07:59:13;;;;;;;12.90;8.90;;;;;;;41.79;16.81;99900.52;107911;1259;64948;-70
2023/06/19 08:01:41;;;;;;;11.60;8.70;;;;;;;41.82;16.65;99901.20;108024;1254;60459;-70
2023/06/19 08:04:08;;;;;;;17.70;9.40;;;;;;;41.59;16.64;99900.69;107915;1254;63767;-69
2023/06/19 08:06:35;;;;;;;14.30;9.00;;;;;;;41.54;17.10;99906.61;107996;1254;60449;-70
2023/06/19 08:09:03;;;;;;;19.80;8.90;;;;;;;41.09;17.31;99908.70;108087;1255;60411;-70
2023/06/19 08:11:51;;;;;;;16.00;9.50;;;;;;;40.87;17.38;99911.81;107971;1254;64970;-70
2023/06/19 08:14:24;;;;;;;11.40;8.40;;;;;;;40.88;17.20;99912.92;107920;1254;61380;-70
2023/06/19 08:17:40;;;;;;;15.00;9.20;;;;;;;40.51;17.71;99913.14;108009;1256;62480;-69
2023/06/19 08:20:08;;;;;;;16.80;9.00;;;;;;;40.95;17.71;99911.59;107995;1260;60507;-69
2023/06/19 08:22:35;;;;;;;15.00;9.80;;;;;;;41.19;17.15;99914.92;107975;1260;60476;-68
2023/06/19 08:25:05;;;;;;;15.60;9.20;;;;;;;41.12;17.28;99918.34;107923;1254;65122;-68
2023/06/19 08:27:32;;;;;;;11.70;8.90;;;;;;;41.13;17.05;99915.27;107906;1254;68774;-69
2023/06/19 08:30:00;;;;;;;18.50;9.10;;;;;;;41.10;16.81;99922.08;107884;1257;63771;-71
2023/06/19 08:32:27;;;;;;;14.50;9.00;;;;;;;40.95;16.97;99923.48;108027;1255;60531;-70
2023/06/19 08:34:54;;;;;;;12.90;8.80;;;;;;;40.82;17.17;99927.08;107996;1256;60329;-68
2023/06/19 08:37:22;;;;;;;16.90;9.10;;;;;;;41.31;16.99;99922.98;108045;1254;64955;-70
2023/06/19 08:39:49;;;;;;;11.90;8.00;;;;;;;41.50;16.98;99915.27;107974;1255;60554;-70
2023/06/19 08:42:18;;;;;;;13.60;9.60;;;;;;;41.28;16.79;99919.52;107990;1255;64339;-71
2023/06/19 08:44:45;;;;;;;14.70;8.40;;;;;;;41.04;16.90;99922.58;107981;1254;60411;-69
2023/06/19 08:47:12;;;;;;;11.50;8.90;;;;;;;41.35;16.67;99920.69;107980;1257;59170;-71
2023/06/19 08:49:39;;;;;;;15.50;8.60;;;;;;;41.45;16.50;99917.70;107828;1254;67189;-69
2023/06/19 08:52:08;;;;;;;12.40;9.60;;;;;;;41.32;16.65;99916.84;107901;1254;61475;-69
2023/06/19 08:54:43;;;;;;;15.30;8.70;;;;;;;41.79;16.52;99917.84;107945;1254;62507;-71
2023/06/19 09:05:32;;;;;;;12.70;8.90;;;;;;;41.78;16.11;99919.65;108032;1254;63908;-70
2023/06/19 09:08:03;;;;;;;15.40;9.20;;;;;;;41.82;16.23;99919.23;108006;1254;61894;-70
2023/06/19 09:10:35;;;;;;;11.60;8.90;;;;;;;41.72;16.24;99918.13;107857;1257;64010;-70
2023/06/19 09:13:03;;;;;;;10.80;8.10;;;;;;;41.66;16.53;99914.77;107900;1254;60338;-69
2023/06/19 09:15:32;;;;;;;15.40;8.80;;;;;;;41.47;16.22;99918.73;107971;1255;60204;-71
2023/06/19 09:18:05;;;;;;;13.60;8.60;;;;;;;42.17;15.90;99911.77;107963;1254;64919;-68
2023/06/19 09:20:34;;;;;;;12.80;8.80;;;;;;;42.14;15.98;99915.50;107983;1254;61395;-70
2023/06/19 09:23:02;;;;;;;13.40;8.30;;;;;;;41.99;16.17;99915.52;107976;1254;63784;-71
2023/06/19 09:25:29;;;;;;;13.80;8.80;;;;;;;42.36;15.78;99910.35;107923;1260;60422;-68
2023/06/19 09:27:57;;;;;;;13.50;9.40;;;;;;;42.55;15.96;99909.63;107745;1254;59541;-70
2023/06/19 09:30:25;;;;;;;14.00;8.10;;;;;;;42.87;15.92;99915.45;107962;1254;64959;-71
2023/06/19 09:32:54;;;;;;;14.90;9.30;;;;;;;42.60;15.82;99919.33;107941;1254;61444;-70
2023/06/19 09:35:21;;;;;;;14.20;9.20;;;;;;;42.94;15.57;99915.30;107898;1254;63717;-69
2023/06/19 09:37:52;;;;;;;13.20;8.40;;;;;;;42.89;15.49;99920.48;107895;1257;60537;-72
2023/06/19 09:40:20;;;;;;;11.50;8.50;;;;;;;42.60;15.55;99920.45;107827;1254;60691;-69
2023/06/19 09:42:48;;;;;;;12.60;8.40;;;;;;;42.19;16.00;99913.83;107786;1261;64959;-69
2023/06/19 09:45:20;;;;;;;18.00;8.80;;;;;;;41.81;16.10;99917.02;107835;1263;60550;-70
2023/06/19 09:47:47;;;;;;;11.80;8.30;;;;;;;41.83;16.27;99917.38;107904;1257;63784;-69
2023/06/19 09:50:17;;;;;;;12.40;8.60;;;;;;;41.47;16.52;99909.06;107765;1254;60343;-70
2023/06/19 09:52:48;;;;;;;14.20;8.60;;;;;;;41.53;16.75;99907.99;107918;1254;59093;-70
2023/06/19 09:55:15;;;;;;;14.60;8.80;;;;;;;41.12;17.03;99909.00;107623;1254;65019;-70
2023/06/19 09:57:43;;;;;;;14.80;8.80;;;;;;;41.35;16.69;99906.65;107934;1254;61498;-71
2023/06/19 10:00:16;;;;;;;11.80;9.10;;;;;;;41.44;16.69;99906.11;107873;1255;63761;-69
2023/06/19 10:02:45;;;;;;;17.90;9.70;;;;;;;41.95;16.58;99904.48;107779;1257;60434;-71
2023/06/19 10:05:15;;;;;;;12.40;8.50;;;;;;;42.34;16.49;99902.21;107981;1260;60348;-70
2023/06/19 10:07:45;;;;;;;13.00;8.50;;;;;;;41.95;16.40;99904.37;107962;1254;64266;-69
2023/06/19 10:10:24;;;;;;;14.70;9.00;;;;;;;42.13;16.45;99897.81;107860;1254;60292;-71
2023/06/19 10:12:57;;;;;;;13.60;8.60;;;;;;;41.81;16.39;99897.38;107910;1260;62730;-72
2023/06/19 10:15:26;;;;;;;12.60;9.20;;;;;;;41.85;16.54;99895.14;107908;1260;60302;-70
2023/06/19 10:17:59;;;;;;;17.40;9.60;;;;;;;42.09;16.54;99897.92;107947;1255;59653;-71
2023/06/19 10:20:33;;;;;;;14.10;8.90;;;;;;;42.54;16.48;99892.13;107960;1254;63660;-71
2023/06/19 10:23:10;;;;;;;11.70;8.40;;;;;;;42.75;15.79;99893.84;107940;1254;61416;-72
2023/06/19 10:25:38;;;;;;;22.40;9.70;;;;;;;42.19;16.19;99897.39;107952;1255;63857;-73
2023/06/19 10:28:23;;;;;;;13.90;9.10;;;;;;;42.22;16.12;99892.70;107939;1255;60516;-72
2023/06/19 10:31:04;;;;;;;12.10;8.90;;;;;;;42.42;16.05;99892.50;107857;1256;59158;-71
2023/06/19 10:33:33;;;;;;;10.50;8.60;;;;;;;42.84;15.64;99889.64;107890;1258;66076;-71
2023/06/19 10:36:02;;;;;;;14.90;8.60;;;;;;;43.09;15.73;99880.85;108018;1257;69966;-69
2023/06/19 10:38:29;;;;;;;16.70;8.40;;;;;;;43.21;15.67;99882.23;107783;1257;63760;-70
2023/06/19 10:40:56;;;;;;;16.80;9.30;;;;;;;42.84;15.57;99885.33;107871;1257;59578;-69
2023/06/19 10:43:59;;;;;;;13.40;8.70;;;;;;;42.51;15.79;99889.90;107787;1257;60538;-70
2023/06/19 10:47:07;;;;;;;14.10;8.90;;;;;;;42.22;16.23;99876.61;107895;1257;64254;-70
2023/06/19 10:49:54;;;;;;;13.00;8.90;;;;;;;42.16;16.28;99873.05;107889;1256;70057;-70
2023/06/19 10:52:21;;;;;;;10.20;9.10;;;;;;;42.46;15.77;99869.38;107760;1258;62519;-71
2023/06/19 10:54:57;;;;;;;11.30;9.00;;;;;;;42.75;15.37;99864.12;107750;1257;60497;-71
2023/06/19 10:57:31;;;;;;;12.60;8.50;;;;;;;42.79;15.75;99864.21;107794;1257;59178;-69
2023/06/19 10:59:58;;;;;;;13.50;9.50;;;;;;;42.67;15.95;99859.34;107955;1257;74123;-72
2023/06/19 11:02:25;;;;;;;14.20;8.80;;;;;;;42.52;15.93;99854.61;107765;1257;61394;-70
2023/06/19 11:04:54;;;;;;;16.80;8.80;;;;;;;42.37;15.95;99851.35;107787;1257;63915;-73
2023/06/19 11:07:22;;;;;;;11.20;8.80;;;;;;;42.25;16.18;99851.71;107909;1257;60337;-70
2023/06/19 11:09:49;;;;;;;14.40;9.20;;;;;;;42.40;15.99;99852.75;107762;1257;60424;-70
2023/06/19 11:12:19;;;;;;;14.20;8.80;;;;;;;42.78;15.48;99849.48;107851;1257;63678;-70
2023/06/19 11:14:50;;;;;;;14.80;9.00;;;;;;;42.87;15.43;99848.89;107866;1255;60811;-71
2023/06/19 11:17:23;;;;;;;11.60;8.30;;;;;;;43.21;15.21;99848.14;107767;1257;62444;-70
2023/06/19 11:19:52;;;;;;;14.70;8.80;;;;;;;42.82;15.77;99846.98;107737;1257;60363;-70
2023/06/19 11:22:20;;;;;;;14.50;8.90;;;;;;;41.96;16.15;99846.39;107763;1255;60346;-71
2023/06/19 11:24:48;;;;;;;13.80;9.70;;;;;;;42.09;16.19;99844.36;107692;1256;63701;-71
2023/06/19 11:27:28;;;;;;;14.60;9.10;;;;;;;42.65;15.83;99845.54;107821;1256;60400;-71
2023/06/19 11:29:58;;;;;;;13.30;9.70;;;;;;;42.53;15.58;99846.91;107836;1257;66518;-70
2023/06/19 11:32:41;;;;;;;12.80;8.20;;;;;;;43.10;15.30;99846.70;107883;1257;60489;-71
2023/06/19 11:35:11;;;;;;;12.50;8.20;;;;;;;42.67;15.50;99854.20;107921;1254;60283;-70
2023/06/19 11:37:42;;;;;;;11.00;8.80;;;;;;;42.42;15.41;99857.34;107944;1254;65003;-72
2023/06/19 11:40:14;;;;;;;11.90;8.00;;;;;;;42.67;15.49;99852.73;107815;1254;61414;-70
2023/06/19 11:42:47;;;;;;;17.40;8.80;;;;;;;43.13;15.10;99848.36;107885;1257;62665;-69
2023/06/19 11:45:16;;;;;;;10.90;8.50;;;;;;;43.46;15.25;99848.82;107915;1256;60351;-68
2023/06/19 11:47:47;;;;;;;14.20;8.60;;;;;;;43.29;14.90;99852.13;107918;1254;60318;-69
2023/06/19 11:50:15;;;;;;;11.90;8.30;;;;;;;43.00;14.68;99850.66;107918;1254;64958;-71
2023/06/19 11:52:44;;;;;;;11.50;8.30;;;;;;;43.44;14.47;99848.48;107873;1254;61432;-71
2023/06/19 11:55:14;;;;;;;9.70;7.60;;;;;;;43.74;14.53;99850.86;107918;1256;63751;-68
2023/06/19 11:57:41;;;;;;;9.50;8.40;;;;;;;43.34;14.52;99851.18;107988;1256;60430;-70
2023/06/19 12:00:14;;;;;;;12.70;8.30;;;;;;;43.30;14.75;99844.98;107879;1254;60261;-69
2023/06/19 12:02:41;;;;;;;11.00;8.40;;;;;;;42.60;14.74;99842.53;107918;1254;63999;-69
2023/06/19 12:05:10;;;;;;;13.80;8.30;;;;;;;42.69;15.03;99833.09;107879;1254;61419;-70
2023/06/19 12:07:38;;;;;;;12.50;8.60;;;;;;;42.98;14.88;99828.83;107934;1257;62577;-70
2023/06/19 12:10:09;;;;;;;11.90;8.30;;;;;;;43.22;14.50;99827.85;107889;1257;60437;-68
2023/06/19 12:12:40;;;;;;;13.00;8.30;;;;;;;43.32;14.54;99827.98;107934;1254;60342;-70
2023/06/19 12:15:08;;;;;;;;;;;;;;;42.94;14.48;99820.29;107892;1254;63742;-71
2023/06/19 12:17:35;;;;;;;14.20;8.00;;;;;;;42.45;15.15;99821.05;107962;1254;60227;-70
2023/06/19 12:20:05;;;;;;;10.00;7.60;;;;;;;42.14;15.53;99822.64;107902;1256;63793;-69
2023/06/19 12:22:34;;;;;;;12.40;8.10;;;;;;;42.25;15.23;99823.66;107899;1254;60370;-71
2023/06/19 12:25:01;;;;;;;14.40;8.50;;;;;;;41.83;15.19;99823.34;107885;1254;60441;-70
2023/06/19 12:27:28;;;;;;;16.90;8.50;;;;;;;41.59;15.09;99818.92;107705;1254;64918;-70
2023/06/19 12:29:55;;;;;;;12.80;7.30;;;;;;;41.62;15.14;99816.07;107879;1254;61759;-70
2023/06/19 12:32:23;;;;;;;12.40;7.40;;;;;;;41.40;15.38;99811.86;107855;1254;62534;-70
2023/06/19 12:34:53;;;;;;;10.50;7.60;;;;;;;41.09;15.59;99812.59;107816;1254;60444;-69
2023/06/19 12:37:21;;;;;;;10.40;7.70;;;;;;;41.31;15.25;99806.51;107883;1254;59212;-70
2023/06/19 12:39:50;;;;;;;10.60;7.90;;;;;;;41.34;15.30;99810.81;107882;1254;63684;-70
2023/06/19 12:42:17;;;;;;;12.20;8.30;;;;;;;41.36;14.46;99808.63;107965;1254;60341;-70
2023/06/19 12:44:45;;;;;;;10.60;7.40;;;;;;;41.44;14.59;99806.57;107838;1257;63700;-71
2023/06/19 12:47:16;;;;;;;11.40;7.80;;;;;;;41.68;14.43;99800.85;107901;1254;60408;-70
2023/06/19 12:49:44;;;;;;;11.70;7.00;;;;;;;41.73;14.28;99804.34;108021;1258;60335;-71
2023/06/19 12:52:11;;;;;;;10.00;7.00;;;;;;;41.78;14.25;99798.50;107948;1254;65118;-70
2023/06/19 12:54:41;;;;;;;14.70;7.40;;;;;;;41.90;14.28;99795.23;108035;1254;61693;-70
2023/06/19 12:57:09;;;;;;;14.30;7.40;;;;;;;41.92;14.25;99795.52;107910;1257;63760;-70
2023/06/19 12:59:36;;;;;;;11.60;6.90;;;;;;;41.76;14.04;99793.85;108049;1254;59279;-69
2023/06/19 13:02:04;;;;;;;11.20;7.80;;;;;;;41.94;13.79;99793.80;107986;1254;59049;-70
2023/06/19 13:04:31;;;;;;;11.50;7.00;;;;;;;42.17;14.01;99794.80;108082;1254;64912;-70
2023/06/19 13:06:59;;;;;;;11.60;7.20;;;;;;;41.83;14.00;99794.59;108026;1254;61161;-69
2023/06/19 13:09:26;;;;;;;10.20;7.00;;;;;;;41.99;13.95;99797.73;108034;1259;63827;-70
2023/06/19 13:11:53;;;;;;;12.50;7.30;;;;;;;41.78;13.52;99793.13;108077;1254;60511;-70
2023/06/19 13:14:20;;;;;;;10.80;6.90;;;;;;;41.87;13.32;99798.26;107889;1254;60314;-68
2023/06/19 13:16:48;;;;;;;10.70;7.10;;;;;;;41.75;13.29;99793.18;108087;1254;63686;-69
2023/06/19 13:19:15;;;;;;;10.90;7.40;;;;;;;41.69;13.47;99792.17;108057;1254;61408;-69
2023/06/19 13:21:43;;;;;;;10.40;7.20;;;;;;;41.30;13.35;99792.69;108032;1256;63775;-70
2023/06/19 13:24:10;;;;;;;10.30;7.20;;;;;;;41.23;13.95;99791.16;108021;1256;60291;-70
2023/06/19 13:26:38;;;;;;;11.50;6.80;;;;;;;41.27;13.87;99792.18;108016;1254;60371;-69
2023/06/19 13:29:05;;;;;;;10.30;6.80;;;;;;;41.09;13.93;99786.25;108011;1254;64877;-69
2023/06/19 13:35:00;;;;;;;22.00;7.70;;;;;;;41.06;14.31;99776.52;108022;1256;63679;-71
2023/06/19 13:37:29;;;;;;;12.80;7.40;;;;;;;41.30;14.37;99774.83;108009;1254;60351;-70
2023/06/19 13:40:03;;;;;;;9.50;7.20;;;;;;;41.31;14.35;99779.54;108068;1253;60421;-70
2023/06/19 13:42:30;;;;;;;8.40;7.10;;;;;;;41.23;14.29;99782.73;107927;1254;65382;-70